Terminal Aerodrome Forecast
Issued by NWS

Home | Current Version | Previous Version | Graphics & Text | Print | Product List | Glossary On
Versions: 1 2 3 4 5 6 7 8 9 10 11 12 13
430
FTUS43 KBIS 221737
TAFMOT
TAF
KMOT 221737Z 2218/2318 29009KT P6SM FEW090 SCT250
     FM230200 VRB05KT P6SM FEW090 FEW250
     FM231500 34010KT P6SM SCT200=

USA.gov is the U.S. government's official web portal to all federal, state and local government web resources and services.